Portada
METAR-TAF:

METAR-TAF

Aeropuertos :

Colmenar Viejo, España

latitud: 40-39N, longitud: 003-44W, altitud: -999 m

Observación

El informe se hizo hace 41 minutos, a las 11:30 UTC
Viento 2 kt con dirección variable
Temperatura 16°C
Humedad 39%
Presión 1017 hPa
Visibilidad 10 km o más
Escasas nubes a una altura de 5000 ft

METAR: LECV 261130Z VRB02KT 9999 FEW050 16/02 Q1017

Hora: 14:11 (12:11 UTC)

Pronóstico

El informe se hizo hace 1 hora y 11 minutos, a las 11:00 UTC
Pronóstico válido del 26 a las 12 UTC al 27 a las 12 UTC
Viento 5 kt con dirección variable
Visibilidad 10 km o más
Escasas nubes a una altura de 4500 ft

TAF: LECV 261100Z 2612/2712 VRB05KT 9999 FEW045 TX20/2615Z TN07/2706Z

Observaciones y pronósticos meteorológicos de más de 4000 aeropuertos (mensajes METAR y TAF).

Los puntos amarillos y rojos representan las estaciones disponibles.

Ponga el ratón en el punto deseado para ver el nombre de la estación.

Haga clic para ver las observaciones y los pronósticos meteorológicos.

Para cambiar el mapa : haga clic en los botones verdes con una cruz de color negro para hacer un zoom, en el botón verde con un guión para alejar o en las flechas verdes para mapas adyacentes.


METAR-TAF: